EWG955 LDDU-EDDK
Flight info
| Callsign | EWG955 |
|---|---|
| Flight time | 1h 52m |
| Altitude | 34000 |
| Route | AMUGO DCT UVODI DCT PEVAL DCT BABAG DCT MOBDO DCT SOTOV P66 KPT L608 KOVAN T844 UMDAS/N0401F240 T844 ASKIK T840 GULKO |
| Aircraft | A321/M-SDE3FGHIRWY/LB1 |
Departure
| Time | 2026-04-25 14:54 |
|---|---|
| Airport | Dubrovnik Ruđer Bošković Airport (LDDU) |
Arrival
| Time | 2026-04-25 16:46 |
|---|---|
| Airport | Cologne Bonn Airport (EDDK) |
| Time | Latitude | Longitude | Altitude | Speed | Heading |
|---|---|---|---|---|---|
| 2026-04-25 14:23 | 42.56130 | 18.26202 | 534 ft | 0 kts | 208° |
| 2026-04-25 14:46 | 42.56135 | 18.26206 | 534 ft | 4 kts | 208° |
| 2026-04-25 14:46 | 42.56156 | 18.26222 | 534 ft | 2 kts | 208° |
| 2026-04-25 14:46 | 42.56177 | 18.26231 | 534 ft | 4 kts | 158° |
| 2026-04-25 14:46 | 42.56193 | 18.26211 | 534 ft | 4 kts | 118° |
| 2026-04-25 14:47 | 42.56202 | 18.26188 | 534 ft | 0 kts | 118° |
| 2026-04-25 14:49 | 42.56195 | 18.26205 | 534 ft | 6 kts | 118° |
| 2026-04-25 14:49 | 42.56176 | 18.26253 | 534 ft | 11 kts | 116° |
| 2026-04-25 14:49 | 42.56110 | 18.26422 | 534 ft | 17 kts | 118° |
| 2026-04-25 14:49 | 42.56053 | 18.26562 | 534 ft | 18 kts | 118° |
| 2026-04-25 14:50 | 42.56014 | 18.26662 | 534 ft | 18 kts | 118° |
| 2026-04-25 14:50 | 42.55934 | 18.26862 | 534 ft | 19 kts | 118° |
| 2026-04-25 14:50 | 42.55872 | 18.27020 | 534 ft | 19 kts | 118° |
| 2026-04-25 14:50 | 42.55808 | 18.27182 | 534 ft | 20 kts | 118° |
| 2026-04-25 14:51 | 42.55742 | 18.27351 | 534 ft | 21 kts | 118° |
| 2026-04-25 14:51 | 42.55696 | 18.27465 | 534 ft | 21 kts | 118° |
| 2026-04-25 14:51 | 42.55626 | 18.27641 | 534 ft | 21 kts | 118° |
| 2026-04-25 14:51 | 42.55554 | 18.27821 | 534 ft | 22 kts | 118° |
| 2026-04-25 14:52 | 42.55465 | 18.28052 | 534 ft | 18 kts | 107° |
| 2026-04-25 14:52 | 42.55514 | 18.28151 | 534 ft | 10 kts | 26° |
| 2026-04-25 14:52 | 42.55583 | 18.28177 | 533 ft | 11 kts | 358° |
| 2026-04-25 14:52 | 42.55605 | 18.28162 | 533 ft | 11 kts | 320° |
| 2026-04-25 14:53 | 42.55665 | 18.28016 | 532 ft | 22 kts | 298° |
| 2026-04-25 14:53 | 42.55824 | 18.27613 | 531 ft | 82 kts | 298° |
| 2026-04-25 14:53 | 42.56194 | 18.26677 | 534 ft | 140 kts | 298° |
| 2026-04-25 14:53 | 42.56716 | 18.25366 | 820 ft | 163 kts | 298° |
| 2026-04-25 14:54 | 42.57436 | 18.23583 | 1761 ft | 164 kts | 297° |
| 2026-04-25 14:54 | 42.57813 | 18.22629 | 2061 ft | 176 kts | 296° |
| 2026-04-25 14:54 | 42.58423 | 18.21077 | 2329 ft | 198 kts | 297° |
| 2026-04-25 14:54 | 42.59096 | 18.19368 | 2496 ft | 219 kts | 297° |
| 2026-04-25 14:55 | 42.59858 | 18.17443 | 2681 ft | 243 kts | 297° |
| 2026-04-25 14:55 | 42.60674 | 18.15381 | 3235 ft | 252 kts | 298° |
| 2026-04-25 14:55 | 42.61509 | 18.13272 | 3916 ft | 255 kts | 299° |
| 2026-04-25 14:55 | 42.62354 | 18.11130 | 4581 ft | 260 kts | 300° |
| 2026-04-25 14:56 | 42.63213 | 18.08945 | 5223 ft | 265 kts | 300° |
| 2026-04-25 14:56 | 42.64088 | 18.06719 | 5866 ft | 269 kts | 300° |
| 2026-04-25 14:56 | 42.64978 | 18.04457 | 6497 ft | 274 kts | 301° |
| 2026-04-25 14:56 | 42.65872 | 18.02186 | 7100 ft | 278 kts | 301° |
| 2026-04-25 14:57 | 42.66785 | 17.99859 | 7751 ft | 281 kts | 300° |
| 2026-04-25 14:57 | 42.67706 | 17.97509 | 8416 ft | 283 kts | 300° |
| 2026-04-25 14:57 | 42.68636 | 17.95143 | 9097 ft | 285 kts | 300° |
| 2026-04-25 14:57 | 42.69550 | 17.92744 | 9769 ft | 288 kts | 294° |
| 2026-04-25 14:58 | 42.70016 | 17.90090 | 10367 ft | 292 kts | 274° |
| 2026-04-25 14:58 | 42.69803 | 17.87318 | 10817 ft | 304 kts | 255° |
| 2026-04-25 14:58 | 42.68844 | 17.84656 | 10934 ft | 326 kts | 235° |
| 2026-04-25 14:58 | 42.67448 | 17.82111 | 11071 ft | 345 kts | 234° |
| 2026-04-25 14:59 | 42.66004 | 17.79495 | 11391 ft | 355 kts | 234° |
| 2026-04-25 14:59 | 42.64515 | 17.76800 | 11907 ft | 358 kts | 234° |
| 2026-04-25 14:59 | 42.63016 | 17.74078 | 12469 ft | 361 kts | 235° |
| 2026-04-25 14:59 | 42.61507 | 17.71330 | 13001 ft | 365 kts | 235° |
| 2026-04-25 15:00 | 42.59990 | 17.68559 | 13559 ft | 368 kts | 235° |
| 2026-04-25 15:00 | 42.58463 | 17.65761 | 14080 ft | 370 kts | 237° |
| 2026-04-25 15:00 | 42.57236 | 17.62709 | 14558 ft | 369 kts | 252° |
| 2026-04-25 15:00 | 42.56686 | 17.59329 | 15037 ft | 367 kts | 268° |
| 2026-04-25 15:01 | 42.56858 | 17.55890 | 15521 ft | 367 kts | 284° |
| 2026-04-25 15:01 | 42.57712 | 17.52692 | 15991 ft | 367 kts | 299° |
| 2026-04-25 15:01 | 42.59144 | 17.49834 | 16464 ft | 368 kts | 308° |
| 2026-04-25 15:01 | 42.60689 | 17.47048 | 16952 ft | 370 kts | 307° |
| 2026-04-25 15:02 | 42.62238 | 17.44247 | 17438 ft | 373 kts | 307° |
| 2026-04-25 15:02 | 42.63795 | 17.41418 | 17911 ft | 375 kts | 307° |
| 2026-04-25 15:02 | 42.65358 | 17.38570 | 18368 ft | 377 kts | 307° |
| 2026-04-25 15:02 | 42.66929 | 17.35707 | 18775 ft | 379 kts | 307° |
| 2026-04-25 15:03 | 42.68510 | 17.32828 | 19167 ft | 381 kts | 307° |
| 2026-04-25 15:03 | 42.70076 | 17.29969 | 19548 ft | 383 kts | 307° |
| 2026-04-25 15:03 | 42.71671 | 17.27053 | 19934 ft | 385 kts | 307° |
| 2026-04-25 15:03 | 42.73274 | 17.24122 | 20327 ft | 387 kts | 307° |
| 2026-04-25 15:04 | 42.74891 | 17.21170 | 20712 ft | 390 kts | 307° |
| 2026-04-25 15:04 | 42.76513 | 17.18206 | 21089 ft | 392 kts | 307° |
| 2026-04-25 15:04 | 42.78144 | 17.15219 | 21464 ft | 394 kts | 307° |
| 2026-04-25 15:04 | 42.79782 | 17.12216 | 21821 ft | 396 kts | 307° |
| 2026-04-25 15:05 | 42.81429 | 17.09191 | 22185 ft | 399 kts | 306° |
| 2026-04-25 15:05 | 42.83084 | 17.06152 | 22566 ft | 401 kts | 306° |
| 2026-04-25 15:05 | 42.84750 | 17.03091 | 22908 ft | 403 kts | 306° |
| 2026-04-25 15:06 | 42.88079 | 16.96960 | 23617 ft | 407 kts | 306° |
| 2026-04-25 15:06 | 42.89765 | 16.93848 | 23917 ft | 409 kts | 306° |
| 2026-04-25 15:06 | 42.91458 | 16.90717 | 24218 ft | 411 kts | 306° |
| 2026-04-25 15:06 | 42.93156 | 16.87567 | 24523 ft | 413 kts | 306° |
| 2026-04-25 15:07 | 42.94861 | 16.84404 | 24825 ft | 415 kts | 306° |
| 2026-04-25 15:07 | 42.96575 | 16.81228 | 25124 ft | 417 kts | 306° |
| 2026-04-25 15:07 | 42.98297 | 16.78033 | 25414 ft | 419 kts | 306° |
| 2026-04-25 15:07 | 43.00007 | 16.74858 | 25674 ft | 421 kts | 306° |
| 2026-04-25 15:08 | 43.01745 | 16.71626 | 25940 ft | 424 kts | 306° |
| 2026-04-25 15:08 | 43.03494 | 16.68375 | 26211 ft | 426 kts | 306° |
| 2026-04-25 15:08 | 43.05250 | 16.65109 | 26499 ft | 427 kts | 306° |
| 2026-04-25 15:08 | 43.07012 | 16.61824 | 26777 ft | 429 kts | 306° |
| 2026-04-25 15:09 | 43.08778 | 16.58522 | 27042 ft | 431 kts | 306° |
| 2026-04-25 15:09 | 43.10553 | 16.55209 | 27317 ft | 432 kts | 307° |
| 2026-04-25 15:09 | 43.14633 | 16.49193 | 27848 ft | 437 kts | 314° |
| 2026-04-25 15:10 | 43.16756 | 16.46196 | 28099 ft | 439 kts | 313° |
| 2026-04-25 15:10 | 43.18884 | 16.43182 | 28350 ft | 441 kts | 313° |
| 2026-04-25 15:10 | 43.23151 | 16.37121 | 28922 ft | 443 kts | 313° |
| 2026-04-25 15:11 | 43.25297 | 16.34064 | 29141 ft | 445 kts | 313° |
| 2026-04-25 15:11 | 43.27451 | 16.30992 | 29323 ft | 448 kts | 313° |
| 2026-04-25 15:11 | 43.29614 | 16.27903 | 29523 ft | 450 kts | 313° |
| 2026-04-25 15:12 | 43.33938 | 16.21733 | 29919 ft | 453 kts | 313° |
| 2026-04-25 15:12 | 43.36130 | 16.18603 | 30117 ft | 455 kts | 313° |
| 2026-04-25 15:12 | 43.38321 | 16.15471 | 30324 ft | 455 kts | 313° |
| 2026-04-25 15:12 | 43.39772 | 16.13394 | 30484 ft | 454 kts | 313° |
| 2026-04-25 15:13 | 43.42695 | 16.09207 | 30810 ft | 453 kts | 313° |
| 2026-04-25 15:13 | 43.47050 | 16.02947 | 31294 ft | 452 kts | 313° |
| 2026-04-25 15:13 | 43.49216 | 15.99827 | 31540 ft | 451 kts | 312° |
| 2026-04-25 15:14 | 43.51350 | 15.96750 | 31820 ft | 449 kts | 312° |
| 2026-04-25 15:14 | 43.53505 | 15.93642 | 32062 ft | 448 kts | 312° |
| 2026-04-25 15:14 | 43.55660 | 15.90533 | 32293 ft | 448 kts | 312° |
| 2026-04-25 15:14 | 43.57809 | 15.87427 | 32523 ft | 447 kts | 312° |
| 2026-04-25 15:15 | 43.59951 | 15.84325 | 32749 ft | 447 kts | 312° |
| 2026-04-25 15:15 | 43.62090 | 15.81223 | 32992 ft | 446 kts | 312° |
| 2026-04-25 15:15 | 43.64227 | 15.78121 | 33213 ft | 445 kts | 312° |
| 2026-04-25 15:15 | 43.66360 | 15.75024 | 33439 ft | 445 kts | 312° |
| 2026-04-25 15:16 | 43.68461 | 15.71970 | 33659 ft | 444 kts | 312° |
| 2026-04-25 15:16 | 43.70585 | 15.68881 | 33881 ft | 443 kts | 312° |
| 2026-04-25 15:16 | 43.74818 | 15.62716 | 34045 ft | 439 kts | 311° |
| 2026-04-25 15:17 | 43.81101 | 15.53528 | 34034 ft | 438 kts | 311° |
| 2026-04-25 15:18 | 43.85255 | 15.47445 | 34035 ft | 438 kts | 311° |
| 2026-04-25 15:18 | 43.91517 | 15.38235 | 34034 ft | 438 kts | 311° |
| 2026-04-25 15:19 | 43.94990 | 15.33126 | 34037 ft | 438 kts | 311° |
| 2026-04-25 15:19 | 43.99865 | 15.25936 | 34046 ft | 437 kts | 311° |
| 2026-04-25 15:20 | 44.04005 | 15.19816 | 34041 ft | 437 kts | 311° |
| 2026-04-25 15:20 | 44.08163 | 15.13639 | 34047 ft | 437 kts | 311° |
| 2026-04-25 15:21 | 44.12316 | 15.07456 | 34045 ft | 437 kts | 311° |
| 2026-04-25 15:21 | 44.16469 | 15.01272 | 34045 ft | 437 kts | 311° |
| 2026-04-25 15:22 | 44.20585 | 14.95119 | 34058 ft | 437 kts | 310° |
| 2026-04-25 15:22 | 44.24723 | 14.88922 | 34063 ft | 437 kts | 310° |
| 2026-04-25 15:23 | 44.28860 | 14.82718 | 34059 ft | 436 kts | 310° |
| 2026-04-25 15:23 | 44.32984 | 14.76517 | 34056 ft | 436 kts | 310° |
| 2026-04-25 15:24 | 44.37080 | 14.70345 | 34059 ft | 436 kts | 310° |
| 2026-04-25 15:24 | 44.40503 | 14.65177 | 34060 ft | 436 kts | 310° |
| 2026-04-25 15:25 | 44.45313 | 14.57909 | 34070 ft | 435 kts | 310° |
| 2026-04-25 15:25 | 44.49425 | 14.51687 | 34075 ft | 435 kts | 310° |
| 2026-04-25 15:26 | 44.53494 | 14.45497 | 34075 ft | 434 kts | 310° |
| 2026-04-25 15:26 | 44.57576 | 14.39263 | 34075 ft | 434 kts | 310° |
| 2026-04-25 15:27 | 44.61652 | 14.33034 | 34074 ft | 433 kts | 310° |
| 2026-04-25 15:28 | 44.67740 | 14.23726 | 34067 ft | 433 kts | 310° |
| 2026-04-25 15:28 | 44.71812 | 14.17488 | 34069 ft | 433 kts | 309° |
| 2026-04-25 15:29 | 44.75872 | 14.11246 | 34065 ft | 432 kts | 309° |
| 2026-04-25 15:29 | 44.79915 | 14.04995 | 34054 ft | 432 kts | 309° |
| 2026-04-25 15:30 | 44.83954 | 13.98747 | 34048 ft | 431 kts | 309° |
| 2026-04-25 15:30 | 44.87965 | 13.92540 | 34048 ft | 431 kts | 309° |
| 2026-04-25 15:31 | 44.92000 | 13.86285 | 34048 ft | 431 kts | 309° |
| 2026-04-25 15:31 | 44.96026 | 13.80012 | 34056 ft | 431 kts | 309° |
| 2026-04-25 15:32 | 45.00040 | 13.73745 | 34054 ft | 430 kts | 309° |
| 2026-04-25 15:32 | 45.04023 | 13.67520 | 34050 ft | 430 kts | 309° |
| 2026-04-25 15:33 | 45.10031 | 13.58121 | 34046 ft | 429 kts | 309° |
| 2026-04-25 15:33 | 45.14026 | 13.51844 | 34052 ft | 429 kts | 309° |
| 2026-04-25 15:34 | 45.18011 | 13.45550 | 34061 ft | 429 kts | 309° |
| 2026-04-25 15:34 | 45.21316 | 13.40326 | 34059 ft | 428 kts | 309° |
| 2026-04-25 15:35 | 45.27912 | 13.29892 | 34054 ft | 427 kts | 309° |
| 2026-04-25 15:36 | 45.33814 | 13.20511 | 34054 ft | 426 kts | 308° |
| 2026-04-25 15:36 | 45.37750 | 13.14221 | 34053 ft | 426 kts | 308° |
| 2026-04-25 15:37 | 45.42108 | 13.08471 | 34061 ft | 428 kts | 315° |
| 2026-04-25 15:37 | 45.46602 | 13.02911 | 34056 ft | 428 kts | 315° |
| 2026-04-25 15:38 | 45.51064 | 12.97388 | 34047 ft | 427 kts | 315° |
| 2026-04-25 15:38 | 45.55547 | 12.91821 | 34047 ft | 427 kts | 315° |
| 2026-04-25 15:39 | 45.60011 | 12.86248 | 34044 ft | 426 kts | 315° |
| 2026-04-25 15:39 | 45.64467 | 12.80669 | 34043 ft | 426 kts | 315° |
| 2026-04-25 15:40 | 45.68167 | 12.76032 | 34049 ft | 425 kts | 315° |
| 2026-04-25 15:40 | 45.73335 | 12.69554 | 34041 ft | 425 kts | 315° |
| 2026-04-25 15:41 | 45.77770 | 12.63979 | 34044 ft | 424 kts | 314° |
| 2026-04-25 15:41 | 45.82197 | 12.58391 | 34039 ft | 424 kts | 314° |
| 2026-04-25 15:42 | 45.86588 | 12.52840 | 34031 ft | 424 kts | 314° |
| 2026-04-25 15:42 | 45.91011 | 12.47239 | 34049 ft | 424 kts | 314° |
| 2026-04-25 15:43 | 45.95427 | 12.41634 | 34031 ft | 424 kts | 314° |
| 2026-04-25 15:43 | 45.99836 | 12.36017 | 34031 ft | 424 kts | 314° |
| 2026-04-25 15:44 | 46.04217 | 12.30432 | 34034 ft | 424 kts | 314° |
| 2026-04-25 15:44 | 46.08628 | 12.24810 | 34029 ft | 423 kts | 314° |
| 2026-04-25 15:45 | 46.13026 | 12.19190 | 34027 ft | 422 kts | 314° |
| 2026-04-25 15:45 | 46.16673 | 12.14511 | 34014 ft | 422 kts | 314° |
| 2026-04-25 15:46 | 46.21770 | 12.07943 | 34013 ft | 423 kts | 314° |
| 2026-04-25 15:46 | 46.26154 | 12.02290 | 34020 ft | 422 kts | 313° |
| 2026-04-25 15:47 | 46.30531 | 11.96641 | 34006 ft | 422 kts | 313° |
| 2026-04-25 15:47 | 46.34908 | 11.90977 | 34012 ft | 422 kts | 313° |
| 2026-04-25 15:48 | 46.39290 | 11.85286 | 33991 ft | 424 kts | 313° |
| 2026-04-25 15:48 | 46.43675 | 11.79633 | 33973 ft | 427 kts | 314° |
| 2026-04-25 15:49 | 46.48329 | 11.74214 | 33959 ft | 430 kts | 317° |
| 2026-04-25 15:49 | 46.53083 | 11.68936 | 33958 ft | 430 kts | 317° |
| 2026-04-25 15:50 | 46.57813 | 11.63598 | 33950 ft | 430 kts | 316° |
| 2026-04-25 15:50 | 46.62474 | 11.58221 | 33966 ft | 431 kts | 316° |
| 2026-04-25 15:51 | 46.66405 | 11.53657 | 33969 ft | 432 kts | 316° |
| 2026-04-25 15:51 | 46.71879 | 11.47301 | 33973 ft | 433 kts | 316° |
| 2026-04-25 15:52 | 46.76585 | 11.41843 | 33997 ft | 432 kts | 317° |
| 2026-04-25 15:52 | 46.81286 | 11.36377 | 33993 ft | 433 kts | 317° |
| 2026-04-25 15:53 | 46.85959 | 11.30924 | 34027 ft | 433 kts | 318° |
| 2026-04-25 15:53 | 46.90677 | 11.25407 | 34020 ft | 434 kts | 318° |
| 2026-04-25 15:54 | 46.95488 | 11.20045 | 34017 ft | 437 kts | 324° |
| 2026-04-25 15:54 | 47.00651 | 11.15317 | 34038 ft | 438 kts | 324° |
| 2026-04-25 15:55 | 47.05777 | 11.10599 | 34050 ft | 437 kts | 326° |
| 2026-04-25 15:55 | 47.10750 | 11.05529 | 34061 ft | 434 kts | 319° |
| 2026-04-25 15:56 | 47.15426 | 10.99943 | 34059 ft | 433 kts | 320° |
| 2026-04-25 15:56 | 47.20080 | 10.94360 | 34082 ft | 432 kts | 319° |
| 2026-04-25 15:57 | 47.24733 | 10.88782 | 34077 ft | 431 kts | 319° |
| 2026-04-25 15:57 | 47.29345 | 10.83242 | 34075 ft | 431 kts | 320° |
| 2026-04-25 15:58 | 47.33970 | 10.77659 | 34100 ft | 428 kts | 321° |
| 2026-04-25 15:58 | 47.38564 | 10.72099 | 34104 ft | 426 kts | 322° |
| 2026-04-25 15:59 | 47.43313 | 10.66905 | 34120 ft | 424 kts | 326° |
| 2026-04-25 15:59 | 47.48172 | 10.62108 | 34118 ft | 423 kts | 327° |
| 2026-04-25 16:00 | 47.51444 | 10.58887 | 34118 ft | 422 kts | 327° |
| 2026-04-25 16:00 | 47.57887 | 10.52354 | 34123 ft | 421 kts | 326° |
| 2026-04-25 16:01 | 47.62672 | 10.47385 | 34112 ft | 419 kts | 325° |
| 2026-04-25 16:01 | 47.67407 | 10.42452 | 34102 ft | 418 kts | 325° |
| 2026-04-25 16:02 | 47.72174 | 10.37492 | 34102 ft | 418 kts | 325° |
| 2026-04-25 16:02 | 47.76880 | 10.32419 | 34099 ft | 418 kts | 322° |
| 2026-04-25 16:03 | 47.81384 | 10.26934 | 34097 ft | 419 kts | 320° |
| 2026-04-25 16:03 | 47.85835 | 10.21330 | 34095 ft | 419 kts | 320° |
| 2026-04-25 16:04 | 47.90292 | 10.15812 | 34078 ft | 420 kts | 320° |
| 2026-04-25 16:04 | 47.94809 | 10.10287 | 34079 ft | 420 kts | 321° |
| 2026-04-25 16:05 | 47.99333 | 10.04755 | 34077 ft | 421 kts | 321° |
| 2026-04-25 16:06 | 48.06107 | 9.96417 | 34091 ft | 420 kts | 320° |
| 2026-04-25 16:06 | 48.10581 | 9.90883 | 34094 ft | 420 kts | 320° |
| 2026-04-25 16:07 | 48.15046 | 9.85349 | 34076 ft | 420 kts | 320° |
| 2026-04-25 16:07 | 48.19541 | 9.79765 | 34091 ft | 419 kts | 320° |
| 2026-04-25 16:08 | 48.24029 | 9.74185 | 34108 ft | 419 kts | 320° |
| 2026-04-25 16:08 | 48.28477 | 9.68639 | 34105 ft | 418 kts | 320° |
| 2026-04-25 16:09 | 48.32944 | 9.63039 | 34103 ft | 418 kts | 320° |
| 2026-04-25 16:09 | 48.37394 | 9.57417 | 34101 ft | 418 kts | 320° |
| 2026-04-25 16:10 | 48.41825 | 9.51743 | 34097 ft | 418 kts | 319° |
| 2026-04-25 16:10 | 48.46243 | 9.46058 | 34092 ft | 418 kts | 319° |
| 2026-04-25 16:11 | 48.50638 | 9.40400 | 34096 ft | 418 kts | 319° |
| 2026-04-25 16:11 | 48.55065 | 9.34704 | 34098 ft | 418 kts | 319° |
| 2026-04-25 16:12 | 48.59484 | 9.28997 | 34100 ft | 418 kts | 319° |
| 2026-04-25 16:12 | 48.64356 | 9.24256 | 34100 ft | 419 kts | 335° |
| 2026-04-25 16:13 | 48.69667 | 9.20776 | 34098 ft | 419 kts | 335° |
| 2026-04-25 16:13 | 48.75014 | 9.17254 | 34101 ft | 419 kts | 335° |
| 2026-04-25 16:14 | 48.80351 | 9.13705 | 34093 ft | 419 kts | 335° |
| 2026-04-25 16:14 | 48.85681 | 9.10152 | 34095 ft | 419 kts | 335° |
| 2026-04-25 16:15 | 48.90184 | 9.07447 | 34090 ft | 419 kts | 340° |
| 2026-04-25 16:15 | 48.96627 | 9.04212 | 34103 ft | 420 kts | 340° |
| 2026-04-25 16:16 | 49.02175 | 9.01436 | 34101 ft | 420 kts | 340° |
| 2026-04-25 16:16 | 49.07719 | 8.98651 | 34106 ft | 419 kts | 340° |
| 2026-04-25 16:17 | 49.13259 | 8.95843 | 34104 ft | 419 kts | 340° |
| 2026-04-25 16:17 | 49.18757 | 8.93038 | 34110 ft | 420 kts | 340° |
| 2026-04-25 16:18 | 49.24298 | 8.90224 | 34110 ft | 420 kts | 340° |
| 2026-04-25 16:18 | 49.29841 | 8.87397 | 34112 ft | 420 kts | 339° |
| 2026-04-25 16:19 | 49.35379 | 8.84572 | 34117 ft | 420 kts | 339° |
| 2026-04-25 16:19 | 49.40892 | 8.81775 | 34118 ft | 420 kts | 340° |
| 2026-04-25 16:20 | 49.49327 | 8.78068 | 34132 ft | 420 kts | 342° |
| 2026-04-25 16:20 | 49.54953 | 8.75698 | 33699 ft | 416 kts | 342° |
| 2026-04-25 16:21 | 49.57732 | 8.74502 | 33416 ft | 413 kts | 342° |
| 2026-04-25 16:21 | 49.60477 | 8.73305 | 32974 ft | 407 kts | 342° |
| 2026-04-25 16:21 | 49.63187 | 8.72107 | 32519 ft | 402 kts | 341° |
| 2026-04-25 16:21 | 49.65824 | 8.70929 | 32072 ft | 398 kts | 341° |
| 2026-04-25 16:22 | 49.68221 | 8.69859 | 31660 ft | 393 kts | 341° |
| 2026-04-25 16:22 | 49.70831 | 8.68694 | 31210 ft | 388 kts | 341° |
| 2026-04-25 16:22 | 49.73413 | 8.67544 | 30768 ft | 384 kts | 342° |
| 2026-04-25 16:22 | 49.75972 | 8.66414 | 30333 ft | 380 kts | 342° |
| 2026-04-25 16:23 | 49.78503 | 8.65301 | 29857 ft | 376 kts | 342° |
| 2026-04-25 16:23 | 49.81000 | 8.64198 | 29419 ft | 370 kts | 342° |
| 2026-04-25 16:23 | 49.83456 | 8.63106 | 29012 ft | 365 kts | 342° |
| 2026-04-25 16:23 | 49.85879 | 8.62027 | 28605 ft | 359 kts | 342° |
| 2026-04-25 16:24 | 49.88234 | 8.60975 | 28220 ft | 355 kts | 341° |
| 2026-04-25 16:24 | 49.90591 | 8.59925 | 27819 ft | 350 kts | 341° |
| 2026-04-25 16:24 | 49.92917 | 8.58890 | 27444 ft | 346 kts | 341° |
| 2026-04-25 16:24 | 49.95226 | 8.57862 | 27070 ft | 344 kts | 341° |
| 2026-04-25 16:25 | 49.97522 | 8.56838 | 26700 ft | 343 kts | 341° |
| 2026-04-25 16:25 | 49.98299 | 8.56490 | 26574 ft | 343 kts | 341° |
| 2026-04-25 16:25 | 50.02094 | 8.54792 | 25950 ft | 340 kts | 342° |
| 2026-04-25 16:25 | 50.04363 | 8.53780 | 25572 ft | 339 kts | 342° |
| 2026-04-25 16:26 | 50.06615 | 8.52731 | 25199 ft | 337 kts | 340° |
| 2026-04-25 16:26 | 50.08834 | 8.51581 | 24821 ft | 335 kts | 339° |
| 2026-04-25 16:26 | 50.11031 | 8.50381 | 24452 ft | 334 kts | 339° |
| 2026-04-25 16:26 | 50.13218 | 8.49169 | 24072 ft | 333 kts | 338° |
| 2026-04-25 16:27 | 50.15392 | 8.47959 | 23684 ft | 331 kts | 338° |
| 2026-04-25 16:27 | 50.17529 | 8.46778 | 23264 ft | 330 kts | 338° |
| 2026-04-25 16:27 | 50.19688 | 8.45598 | 22867 ft | 328 kts | 338° |
| 2026-04-25 16:27 | 50.21835 | 8.44430 | 22478 ft | 326 kts | 339° |
| 2026-04-25 16:28 | 50.23973 | 8.43276 | 22086 ft | 324 kts | 339° |
| 2026-04-25 16:28 | 50.26096 | 8.42132 | 21679 ft | 322 kts | 339° |
| 2026-04-25 16:28 | 50.28200 | 8.40980 | 21283 ft | 319 kts | 336° |
| 2026-04-25 16:28 | 50.30169 | 8.39445 | 20868 ft | 315 kts | 326° |
| 2026-04-25 16:29 | 50.32006 | 8.37605 | 20481 ft | 313 kts | 326° |
| 2026-04-25 16:29 | 50.33810 | 8.35805 | 20085 ft | 311 kts | 326° |
| 2026-04-25 16:29 | 50.35631 | 8.33997 | 19695 ft | 309 kts | 326° |
| 2026-04-25 16:29 | 50.37435 | 8.32204 | 19306 ft | 306 kts | 326° |
| 2026-04-25 16:30 | 50.39225 | 8.30424 | 18911 ft | 303 kts | 326° |
| 2026-04-25 16:30 | 50.40997 | 8.28657 | 18516 ft | 301 kts | 326° |
| 2026-04-25 16:30 | 50.42754 | 8.26901 | 18092 ft | 298 kts | 326° |
| 2026-04-25 16:30 | 50.44497 | 8.25156 | 17693 ft | 296 kts | 326° |
| 2026-04-25 16:31 | 50.46230 | 8.23420 | 17313 ft | 295 kts | 326° |
| 2026-04-25 16:31 | 50.47955 | 8.21693 | 16928 ft | 294 kts | 326° |
| 2026-04-25 16:31 | 50.49675 | 8.19970 | 16547 ft | 292 kts | 326° |
| 2026-04-25 16:31 | 50.51385 | 8.18255 | 16158 ft | 291 kts | 326° |
| 2026-04-25 16:32 | 50.53062 | 8.16568 | 15788 ft | 290 kts | 326° |
| 2026-04-25 16:32 | 50.54756 | 8.14864 | 15413 ft | 289 kts | 326° |
| 2026-04-25 16:32 | 50.56442 | 8.13163 | 15029 ft | 287 kts | 326° |
| 2026-04-25 16:32 | 50.58120 | 8.11467 | 14649 ft | 286 kts | 326° |
| 2026-04-25 16:33 | 50.59789 | 8.09782 | 14279 ft | 285 kts | 326° |
| 2026-04-25 16:33 | 50.61452 | 8.08107 | 13886 ft | 283 kts | 326° |
| 2026-04-25 16:33 | 50.63068 | 8.06470 | 13498 ft | 281 kts | 326° |
| 2026-04-25 16:33 | 50.64707 | 8.04804 | 13118 ft | 280 kts | 326° |
| 2026-04-25 16:34 | 50.66335 | 8.03147 | 12741 ft | 278 kts | 326° |
| 2026-04-25 16:34 | 50.67958 | 8.01497 | 12369 ft | 276 kts | 326° |
| 2026-04-25 16:34 | 50.69570 | 7.99861 | 12002 ft | 275 kts | 326° |
| 2026-04-25 16:34 | 50.71175 | 7.98232 | 11627 ft | 274 kts | 326° |
| 2026-04-25 16:35 | 50.72723 | 7.96571 | 11257 ft | 272 kts | 319° |
| 2026-04-25 16:35 | 50.73962 | 7.94351 | 10900 ft | 270 kts | 302° |
| 2026-04-25 16:35 | 50.74719 | 7.91652 | 10541 ft | 270 kts | 286° |
| 2026-04-25 16:35 | 50.74930 | 7.88721 | 10307 ft | 270 kts | 269° |
| 2026-04-25 16:36 | 50.74699 | 7.85725 | 10219 ft | 278 kts | 264° |
| 2026-04-25 16:36 | 50.74608 | 7.84703 | 10174 ft | 278 kts | 265° |
| 2026-04-25 16:36 | 50.74157 | 7.79635 | 9537 ft | 281 kts | 264° |
| 2026-04-25 16:36 | 50.73883 | 7.76608 | 9182 ft | 277 kts | 265° |
| 2026-04-25 16:37 | 50.73615 | 7.73634 | 8755 ft | 277 kts | 265° |
| 2026-04-25 16:37 | 50.73343 | 7.70631 | 8333 ft | 276 kts | 265° |
| 2026-04-25 16:37 | 50.73075 | 7.67649 | 7942 ft | 274 kts | 265° |
| 2026-04-25 16:37 | 50.72803 | 7.64683 | 7548 ft | 272 kts | 265° |
| 2026-04-25 16:38 | 50.72534 | 7.61737 | 7164 ft | 270 kts | 265° |
| 2026-04-25 16:38 | 50.72268 | 7.58809 | 6778 ft | 269 kts | 265° |
| 2026-04-25 16:38 | 50.72001 | 7.55906 | 6337 ft | 264 kts | 265° |
| 2026-04-25 16:38 | 50.71739 | 7.53065 | 5570 ft | 262 kts | 265° |
| 2026-04-25 16:39 | 50.71473 | 7.50240 | 4983 ft | 254 kts | 262° |
| 2026-04-25 16:39 | 50.70771 | 7.47810 | 4580 ft | 245 kts | 238° |
| 2026-04-25 16:39 | 50.69914 | 7.45601 | 4168 ft | 230 kts | 253° |
| 2026-04-25 16:39 | 50.69435 | 7.43187 | 3769 ft | 231 kts | 262° |
| 2026-04-25 16:40 | 50.69335 | 7.41534 | 3581 ft | 227 kts | 271° |
| 2026-04-25 16:40 | 50.69395 | 7.38247 | 3237 ft | 221 kts | 285° |
| 2026-04-25 16:40 | 50.70201 | 7.36326 | 3045 ft | 212 kts | 328° |
| 2026-04-25 16:40 | 50.71625 | 7.35651 | 3013 ft | 218 kts | 348° |
| 2026-04-25 16:41 | 50.73001 | 7.34778 | 3004 ft | 213 kts | 319° |
| 2026-04-25 16:41 | 50.73688 | 7.33718 | 3015 ft | 207 kts | 315° |
| 2026-04-25 16:41 | 50.75980 | 7.30328 | 2841 ft | 179 kts | 317° |
| 2026-04-25 16:42 | 50.76875 | 7.29039 | 2638 ft | 171 kts | 317° |
| 2026-04-25 16:42 | 50.77733 | 7.27804 | 2418 ft | 162 kts | 317° |
| 2026-04-25 16:42 | 50.78537 | 7.26647 | 2209 ft | 152 kts | 317° |
| 2026-04-25 16:42 | 50.79298 | 7.25550 | 2025 ft | 144 kts | 317° |
| 2026-04-25 16:43 | 50.80028 | 7.24498 | 1828 ft | 141 kts | 317° |
| 2026-04-25 16:43 | 50.80749 | 7.23459 | 1631 ft | 139 kts | 317° |
| 2026-04-25 16:43 | 50.81461 | 7.22431 | 1440 ft | 138 kts | 317° |
| 2026-04-25 16:43 | 50.82161 | 7.21421 | 1270 ft | 138 kts | 316° |
| 2026-04-25 16:44 | 50.82868 | 7.20401 | 1064 ft | 137 kts | 316° |
| 2026-04-25 16:44 | 50.83573 | 7.19382 | 875 ft | 137 kts | 315° |
| 2026-04-25 16:44 | 50.84272 | 7.18362 | 728 ft | 136 kts | 317° |
| 2026-04-25 16:44 | 50.84975 | 7.17353 | 475 ft | 137 kts | 318° |
| 2026-04-25 16:45 | 50.85677 | 7.16345 | 335 ft | 137 kts | 319° |
| 2026-04-25 16:45 | 50.86338 | 7.15388 | 287 ft | 117 kts | 317° |
| 2026-04-25 16:45 | 50.86855 | 7.14635 | 263 ft | 85 kts | 317° |
| 2026-04-25 16:45 | 50.87222 | 7.14105 | 246 ft | 58 kts | 317° |
| 2026-04-25 16:46 | 50.87487 | 7.13721 | 240 ft | 49 kts | 317° |
| 2026-04-25 16:46 | 50.87713 | 7.13390 | 239 ft | 39 kts | 317° |
| 2026-04-25 16:46 | 50.87843 | 7.13169 | 239 ft | 10 kts | 286° |
| 2026-04-25 16:46 | 50.87846 | 7.13130 | 239 ft | 11 kts | 272° |
| 2026-04-25 16:47 | 50.87806 | 7.12861 | 233 ft | 19 kts | 257° |
| 2026-04-25 16:47 | 50.87789 | 7.12693 | 234 ft | 11 kts | 282° |
| 2026-04-25 16:47 | 50.87830 | 7.12617 | 232 ft | 9 kts | 322° |
| 2026-04-25 16:47 | 50.87859 | 7.12535 | 232 ft | 9 kts | 287° |
| 2026-04-25 16:48 | 50.87871 | 7.12471 | 232 ft | 2 kts | 288° |
| 2026-04-25 16:48 | 50.87873 | 7.12462 | 232 ft | 0 kts | 288° |